Time;durP1;ratioP1;P1;durP2;ratioP2;P2;SDS_P1;SDS_P2;PMS_P1;PMS_P2;Temp;Humidity;BMP_temperature;BMP_pressure;BME280_temperature;BME280_humidity;BME280_pressure;Samples;Min_cycle;Max_cycle;Signal;HPM_P1;HPM_P2
2022/09/16 00:00:26;;;;;;;;;6.33;6.33;;;;;17.60;56.17;100704.13;5084007;27;46993;-56
2022/09/16 00:02:52;;;;;;;;;6.33;6.33;;;;;17.56;55.97;100706.19;5092382;27;45472;-56
2022/09/16 00:05:18;;;;;;;;;3.67;3.67;;;;;17.48;56.46;100699.75;5094548;27;45404;-55
2022/09/16 00:07:44;;;;;;;;;4.33;3.00;;;;;17.39;57.28;100706.75;5098215;27;45200;-56
2022/09/16 00:10:10;;;;;;;;;4.00;4.00;;;;;17.35;57.13;100705.31;5093747;27;45995;-56
2022/09/16 00:12:36;;;;;;;;;5.00;5.00;;;;;17.42;57.10;100711.00;5093579;27;45361;-55
2022/09/16 00:15:03;;;;;;;;;6.33;5.00;;;;;17.41;57.15;100710.16;5095709;27;45217;-56
2022/09/16 00:17:29;;;;;;;;;5.00;5.00;;;;;17.40;57.22;100721.91;5098262;27;45456;-56
2022/09/16 00:19:56;;;;;;;;;6.67;6.00;;;;;17.31;57.13;100715.44;5091770;27;46644;-56
2022/09/16 00:22:22;;;;;;;;;5.33;5.00;;;;;17.32;57.59;100727.06;5097487;27;45488;-56
2022/09/16 00:24:51;;;;;;;;;6.00;5.00;;;;;17.31;56.95;100726.19;5097407;27;45535;-57
2022/09/16 00:27:16;;;;;;;;;4.00;4.00;;;;;17.30;57.09;100712.88;5096034;27;45474;-55
2022/09/16 00:29:41;;;;;;;;;5.67;4.67;;;;;17.37;57.10;100736.44;5108799;27;47454;-56
2022/09/16 00:32:07;;;;;;;;;7.33;5.67;;;;;17.30;56.90;100723.63;5098025;27;45254;-55
2022/09/16 00:34:32;;;;;;;;;5.33;4.67;;;;;17.33;57.50;100723.41;5096906;27;45428;-54
2022/09/16 00:36:58;;;;;;;;;4.00;4.00;;;;;17.35;57.19;100726.81;5096437;27;45451;-56
2022/09/16 00:39:23;;;;;;;;;4.00;4.00;;;;;17.36;57.24;100733.91;5097928;27;47527;-57
2022/09/16 00:41:49;;;;;;;;;4.00;4.00;;;;;17.29;57.13;100732.69;5098369;27;45424;-55
2022/09/16 00:44:52;;;;;;;;;3.00;3.00;;;;;17.30;57.35;100737.06;5098046;27;45417;-55
2022/09/16 00:47:29;;;;;;;;;4.33;4.00;;;;;17.30;57.39;100737.06;5095033;27;45529;-60
2022/09/16 00:50:01;;;;;;;;;5.33;5.33;;;;;17.28;57.06;100730.97;5063611;27;46852;-56
2022/09/16 00:52:28;;;;;;;;;5.33;5.00;;;;;17.23;57.63;100736.72;5097156;27;45751;-54
2022/09/16 00:54:54;;;;;;;;;7.00;5.00;;;;;17.21;57.72;100724.41;5097529;27;45490;-56
2022/09/16 00:57:19;;;;;;;;;5.33;4.00;;;;;17.19;57.71;100726.34;5095699;27;45411;-57
2022/09/16 00:59:52;;;;;;;;;6.00;4.00;;;;;17.12;58.74;100731.38;5097627;27;46198;-58
2022/09/16 01:02:20;;;;;;;;;6.00;5.00;;;;;17.08;58.65;100728.09;5096927;27;45404;-56
2022/09/16 01:05:13;;;;;;;;;9.33;5.33;;;;;17.07;59.15;100731.75;5092393;27;45451;-56
2022/09/16 01:07:42;;;;;;;;;9.33;6.67;;;;;16.90;59.95;100718.81;5096499;27;45456;-56
2022/09/16 01:10:08;;;;;;;;;6.33;5.67;;;;;16.91;59.76;100720.50;5076616;27;45343;-56
2022/09/16 01:12:35;;;;;;;;;8.00;6.33;;;;;16.86;59.73;100703.91;5094239;27;45470;-55
2022/09/16 01:15:03;;;;;;;;;5.67;5.67;;;;;16.91;59.99;100717.81;5094596;27;45223;-56
2022/09/16 01:17:34;;;;;;;;;6.67;6.00;;;;;16.95;59.70;100716.63;5095238;27;45353;-55
2022/09/16 01:20:06;;;;;;;;;7.00;6.00;;;;;16.95;59.97;100723.84;5092849;27;48075;-56
2022/09/16 01:22:44;;;;;;;;;8.67;8.33;;;;;16.92;59.68;100719.53;5092275;27;45410;-57
2022/09/16 01:25:38;;;;;;;;;7.00;7.00;;;;;16.93;59.92;100723.97;5083888;27;45394;-57
2022/09/16 01:28:20;;;;;;;;;6.00;6.00;;;;;16.94;59.93;100722.97;5101911;27;45354;-55
2022/09/16 01:30:53;;;;;;;;;9.33;7.67;;;;;16.94;60.08;100722.97;5092408;27;45405;-56
2022/09/16 01:33:27;;;;;;;;;6.00;6.00;;;;;16.93;60.46;100732.00;5096435;27;45426;-56
2022/09/16 01:36:36;;;;;;;;;8.33;7.00;;;;;16.98;59.78;100723.56;5095444;27;45408;-56
2022/09/16 01:39:07;;;;;;;;;6.00;6.00;;;;;16.99;60.01;100723.44;5096005;27;45435;-56
2022/09/16 01:41:54;;;;;;;;;7.67;7.33;;;;;17.02;60.03;100735.78;5093721;27;47181;-58
2022/09/16 01:44:22;;;;;;;;;7.67;7.67;;;;;17.01;60.17;100729.53;5093495;27;45531;-56
2022/09/16 01:46:58;;;;;;;;;9.33;8.67;;;;;17.04;60.31;100725.75;5093644;27;45435;-56
2022/09/16 01:49:40;;;;;;;;;7.33;7.33;;;;;17.06;59.89;100723.81;5095696;27;45405;-55
2022/09/16 01:52:19;;;;;;;;;3.33;2.00;;;;;17.05;59.98;100725.63;5108572;27;47337;-57
2022/09/16 01:54:48;;;;;;;;;5.00;4.00;;;;;17.07;60.16;100720.16;5094880;27;45315;-57
2022/09/16 01:57:21;;;;;;;;;5.67;5.67;;;;;17.04;60.39;100726.59;5095804;27;45476;-55
2022/09/16 02:00:01;;;;;;;;;11.67;6.67;;;;;17.02;60.74;100725.88;5095920;27;45382;-56
2022/09/16 02:02:36;;;;;;;;;7.67;7.33;;;;;17.02;60.61;100725.03;5095880;27;45447;-59
2022/09/16 02:05:06;;;;;;;;;7.00;6.67;;;;;16.96;60.52;100723.69;5091745;27;47017;-56
2022/09/16 02:07:36;;;;;;;;;5.67;5.67;;;;;16.87;61.52;100716.38;5077494;27;45352;-56
2022/09/16 02:10:15;;;;;;;;;7.00;5.33;;;;;16.83;61.36;100728.34;5090021;27;45725;-56
2022/09/16 02:12:43;;;;;;;;;6.00;6.00;;;;;16.78;61.54;100727.84;5093638;27;47623;-56
2022/09/16 02:15:17;;;;;;;;;10.00;9.00;;;;;16.73;61.75;100725.53;5085864;27;45460;-54
2022/09/16 02:17:49;;;;;;;;;7.33;7.33;;;;;16.69;62.03;100723.22;5095312;27;45347;-55
2022/09/16 02:20:19;;;;;;;;;7.00;7.00;;;;;16.64;62.27;100725.38;5090987;27;45535;-54
2022/09/16 02:22:56;;;;;;;;;8.67;7.00;;;;;16.61;62.35;100728.31;5086966;27;47786;-56
2022/09/16 02:25:22;;;;;;;;;7.33;7.33;;;;;16.57;62.88;100730.38;5096421;27;45380;-56
2022/09/16 02:27:49;;;;;;;;;11.67;9.33;;;;;16.56;63.07;100723.31;5111637;27;45471;-55
2022/09/16 02:30:18;;;;;;;;;11.00;9.00;;;;;16.51;63.63;100720.97;5092672;27;45403;-56
2022/09/16 02:33:03;;;;;;;;;10.67;9.33;;;;;16.46;63.40;100717.81;5095381;27;45460;-56
2022/09/16 02:35:30;;;;;;;;;8.00;6.00;;;;;16.46;63.77;100709.75;5093372;27;45545;-56
2022/09/16 02:38:06;;;;;;;;;4.00;4.00;;;;;16.43;63.15;100701.94;5102064;27;45615;-56
2022/09/16 02:40:43;;;;;;;;;5.00;5.00;;;;;16.47;63.48;100706.09;5083232;27;45523;-56
2022/09/16 02:43:09;;;;;;;;;7.00;7.00;;;;;16.50;63.40;100713.91;5094765;27;46085;-55
2022/09/16 02:45:56;;;;;;;;;9.33;8.33;;;;;16.50;63.28;100703.16;5096825;27;45245;-56
2022/09/16 02:48:50;;;;;;;;;12.00;9.33;;;;;16.49;63.34;100709.50;5085840;27;45523;-55
2022/09/16 02:51:21;;;;;;;;;6.67;6.67;;;;;16.50;63.78;100703.16;5093312;27;46114;-53
2022/09/16 02:53:53;;;;;;;;;13.33;9.00;;;;;16.47;63.71;100708.78;5090532;27;45417;-55
2022/09/16 02:56:33;;;;;;;;;6.67;6.67;;;;;16.45;63.80;100709.88;5092146;27;45583;-55
2022/09/16 02:58:59;;;;;;;;;7.33;7.33;;;;;16.36;65.04;100697.16;5094781;27;45321;-56
2022/09/16 03:01:29;;;;;;;;;8.67;8.33;;;;;16.34;65.06;100697.28;5096116;27;45305;-55
2022/09/16 03:03:55;;;;;;;;;6.67;6.33;;;;;16.28;64.79;100697.78;5093367;27;46215;-57
2022/09/16 03:06:25;;;;;;;;;10.00;7.00;;;;;16.31;64.51;100697.53;5092870;27;45660;-56
2022/09/16 03:08:54;;;;;;;;;12.00;11.33;;;;;16.31;65.05;100694.84;5092364;27;45557;-55
2022/09/16 03:11:34;;;;;;;;;11.33;10.00;;;;;16.29;64.57;100698.63;5091910;27;45367;-56
2022/09/16 03:14:47;;;;;;;;;8.33;8.00;;;;;16.29;64.65;100704.84;5094832;27;47203;-55
2022/09/16 03:17:43;;;;;;;;;9.00;6.67;;;;;16.27;64.81;100696.03;5062688;27;46272;-54
2022/09/16 03:20:39;;;;;;;;;8.67;8.33;;;;;16.26;64.57;100699.72;5101651;27;45238;-55
2022/09/16 03:23:17;;;;;;;;;8.67;7.33;;;;;16.25;64.37;100691.78;5095059;27;45325;-55
2022/09/16 03:25:58;;;;;;;;;9.00;9.00;;;;;16.25;64.83;100689.94;5093606;27;47157;-56
2022/09/16 03:28:36;;;;;;;;;12.00;9.00;;;;;16.21;64.97;100688.50;5093013;27;45340;-56
2022/09/16 03:31:14;;;;;;;;;10.67;10.67;;;;;16.17;64.56;100690.56;5092225;27;45302;-54
2022/09/16 03:34:10;;;;;;;;;9.00;6.00;;;;;16.19;64.79;100693.97;5086206;27;45607;-56
2022/09/16 03:36:42;;;;;;;;;10.33;9.00;;;;;16.18;64.89;100694.09;5092655;27;45400;-56
2022/09/16 03:39:10;;;;;;;;;9.00;9.00;;;;;16.11;65.22;100700.91;5075789;27;45451;-56
2022/09/16 03:41:36;;;;;;;;;9.00;9.00;;;;;16.06;65.30;100695.06;5106332;27;45890;-56
2022/09/16 03:44:01;;;;;;;;;8.33;8.33;;;;;15.99;66.19;100707.22;5088645;27;45578;-56
2022/09/16 03:46:27;;;;;;;;;8.33;8.00;;;;;15.92;66.67;100713.06;5087970;27;46015;-55
2022/09/16 03:48:54;;;;;;;;;12.67;9.67;;;;;15.89;66.09;100713.31;5098099;27;45544;-57
2022/09/16 03:51:20;;;;;;;;;9.67;8.67;;;;;15.89;66.90;100718.66;5095306;27;46723;-56
2022/09/16 03:53:45;;;;;;;;;11.00;8.33;;;;;15.83;66.62;100713.75;5097670;27;45307;-56
2022/09/16 03:56:11;;;;;;;;;10.00;10.00;;;;;15.88;66.58;100722.28;5113142;27;47033;-55
2022/09/16 03:58:36;;;;;;;;;14.00;8.33;;;;;15.85;66.84;100727.91;5097381;27;45443;-54
2022/09/16 04:01:02;;;;;;;;;10.67;10.67;;;;;15.84;67.08;100715.47;5096353;27;45327;-56
2022/09/16 04:03:28;;;;;;;;;10.00;10.00;;;;;15.80;67.39;100716.69;5097520;27;45684;-54
2022/09/16 04:05:55;;;;;;;;;8.67;8.67;;;;;15.76;67.79;100719.72;5099541;27;46904;-56
2022/09/16 04:08:21;;;;;;;;;10.00;8.00;;;;;15.63;68.13;100717.09;5098387;27;45490;-56
2022/09/16 04:10:54;;;;;;;;;10.67;10.33;;;;;15.58;68.46;100720.06;5103379;27;45290;-56
2022/09/16 04:13:20;;;;;;;;;13.00;9.00;;;;;15.41;68.60;100708.91;5096655;27;45471;-56
2022/09/16 04:15:45;;;;;;;;;7.00;7.00;;;;;15.34;69.10;100722.75;5096922;27;49493;-55
2022/09/16 04:18:10;;;;;;;;;9.00;8.67;;;;;15.36;68.28;100711.91;5098371;27;45431;-55
2022/09/16 04:20:36;;;;;;;;;7.67;7.33;;;;;15.37;68.06;100712.81;5093572;27;49180;-56
2022/09/16 04:23:01;;;;;;;;;9.00;9.00;;;;;15.44;68.08;100722.94;5097384;27;45450;-55
2022/09/16 04:25:26;;;;;;;;;8.67;8.67;;;;;15.47;68.34;100730.75;5101251;27;46267;-54
2022/09/16 04:27:53;;;;;;;;;14.00;11.00;;;;;15.51;67.59;100726.03;5095959;27;45464;-55
2022/09/16 04:30:19;;;;;;;;;11.33;8.33;;;;;15.57;67.87;100729.09;5096169;27;45540;-57
2022/09/16 04:32:44;;;;;;;;;9.00;9.00;;;;;15.55;67.90;100730.19;5085222;27;45553;-57
2022/09/16 04:35:10;;;;;;;;;10.33;10.00;;;;;15.45;68.63;100729.16;5077891;27;45359;-55
2022/09/16 04:37:35;;;;;;;;;12.00;10.67;;;;;15.43;68.52;100729.25;5093897;27;45330;-57
2022/09/16 04:40:01;;;;;;;;;12.67;11.00;;;;;15.43;68.08;100736.44;5097382;27;45962;-55
2022/09/16 04:42:26;;;;;;;;;7.33;7.33;;;;;15.33;68.90;100734.44;5093885;27;45539;-56
2022/09/16 04:44:52;;;;;;;;;10.67;10.67;;;;;15.24;69.21;100732.47;5109249;27;45637;-55
2022/09/16 04:47:17;;;;;;;;;9.33;9.00;;;;;15.32;68.33;100743.44;5115372;27;45448;-54
2022/09/16 04:49:42;;;;;;;;;10.33;7.67;;;;;15.36;68.10;100728.00;5098438;27;45343;-56
2022/09/16 04:52:08;;;;;;;;;10.00;10.00;;;;;15.30;68.66;100731.13;5093643;27;45730;-56
2022/09/16 04:54:33;;;;;;;;;13.00;10.67;;;;;15.20;69.03;100730.94;5084520;27;45858;-55
2022/09/16 04:57:00;;;;;;;;;12.00;9.00;;;;;15.11;69.63;100737.00;5096264;27;45648;-55
2022/09/16 04:59:25;;;;;;;;;9.33;9.00;;;;;15.17;69.15;100733.84;5096656;27;45425;-62
2022/09/16 05:01:51;;;;;;;;;11.00;11.00;;;;;15.20;69.18;100730.09;5093152;27;45787;-55
2022/09/16 05:04:16;;;;;;;;;11.00;9.00;;;;;15.30;68.29;100729.31;5097344;27;45554;-56
2022/09/16 05:06:43;;;;;;;;;11.00;10.33;;;;;15.32;68.25;100724.69;5096121;27;45518;-55
2022/09/16 05:09:11;;;;;;;;;10.00;8.67;;;;;15.35;67.85;100723.59;5093553;27;45568;-55
2022/09/16 05:11:38;;;;;;;;;13.00;11.00;;;;;15.42;68.00;100732.06;5094348;27;45432;-54
2022/09/16 05:14:06;;;;;;;;;17.00;13.00;;;;;15.35;67.61;100721.78;5097536;27;45456;-54
2022/09/16 05:16:33;;;;;;;;;11.67;11.00;;;;;15.41;67.41;100727.66;5098154;27;45463;-55
2022/09/16 05:19:00;;;;;;;;;12.00;9.67;;;;;15.46;67.79;100725.50;5090030;27;45504;-55
2022/09/16 05:21:27;;;;;;;;;11.00;9.67;;;;;15.41;67.77;100728.53;5094674;27;45505;-56
2022/09/16 05:23:54;;;;;;;;;16.00;13.67;;;;;15.42;67.65;100737.41;5089485;27;46286;-56
2022/09/16 05:26:25;;;;;;;;;11.33;11.33;;;;;15.49;67.54;100730.63;5083818;27;45469;-54
2022/09/16 05:28:51;;;;;;;;;15.67;13.00;;;;;15.52;67.92;100735.78;5098319;27;45407;-55
2022/09/16 05:31:25;;;;;;;;;14.00;12.00;;;;;15.46;67.62;100733.53;5103021;27;45653;-55
2022/09/16 05:33:55;;;;;;;;;14.00;11.67;;;;;15.51;67.46;100739.44;5093200;27;46490;-55
2022/09/16 05:36:21;;;;;;;;;6.00;6.00;;;;;15.58;67.32;100746.03;5086113;27;45735;-54
2022/09/16 05:38:46;;;;;;;;;16.00;12.00;;;;;15.54;67.53;100728.47;5089954;27;45626;-57
2022/09/16 05:41:12;;;;;;;;;13.00;12.00;;;;;15.57;67.60;100739.81;5094998;27;45594;-58
2022/09/16 05:43:38;;;;;;;;;11.33;11.33;;;;;15.61;67.74;100737.78;5092392;27;46511;-55
2022/09/16 05:46:05;;;;;;;;;12.00;11.00;;;;;15.68;67.18;100755.13;5097162;27;45222;-56
2022/09/16 05:48:31;;;;;;;;;9.67;9.67;;;;;15.65;68.02;100749.16;5094772;27;45601;-57
2022/09/16 05:50:58;;;;;;;;;17.00;11.33;;;;;15.61;68.01;100753.88;5095349;27;45516;-59
2022/09/16 05:53:25;;;;;;;;;11.67;11.67;;;;;15.55;67.76;100748.94;5096858;27;45501;-65
2022/09/16 05:55:58;;;;;;;;;13.33;13.00;;;;;15.62;67.40;100747.53;5095943;27;45373;-60
2022/09/16 05:58:24;;;;;;;;;15.00;14.00;;;;;15.63;67.91;100747.44;5092219;27;45859;-56
2022/09/16 06:00:50;;;;;;;;;12.33;11.00;;;;;15.71;67.26;100757.56;5085757;27;45639;-65
2022/09/16 06:03:16;;;;;;;;;11.67;11.00;;;;;15.76;67.27;100760.78;5095708;27;45521;-57
2022/09/16 06:05:41;;;;;;;;;14.67;13.33;;;;;15.75;66.92;100761.72;5094640;27;45526;-56
2022/09/16 06:08:06;;;;;;;;;14.00;12.67;;;;;15.80;67.23;100761.41;5092564;27;45728;-58
2022/09/16 06:10:37;;;;;;;;;15.67;12.33;;;;;15.85;66.75;100764.59;5089944;27;45561;-59
2022/09/16 06:13:02;;;;;;;;;15.33;13.33;;;;;15.83;66.65;100767.38;5091177;27;47066;-60
2022/09/16 06:15:28;;;;;;;;;19.67;14.67;;;;;15.84;66.80;100770.94;5093852;27;45915;-58
2022/09/16 06:17:53;;;;;;;;;16.33;14.00;;;;;15.86;66.28;100766.28;5095633;27;45353;-58
2022/09/16 06:20:19;;;;;;;;;9.67;9.67;;;;;15.82;66.74;100771.03;5127713;27;45989;-58
2022/09/16 06:22:45;;;;;;;;;17.67;13.33;;;;;15.76;67.27;100776.88;5093779;27;45989;-59
2022/09/16 06:25:10;;;;;;;;;14.00;12.67;;;;;15.71;67.97;100772.81;5082170;27;45380;-58
2022/09/16 06:27:36;;;;;;;;;14.00;14.00;;;;;15.82;67.25;100781.78;5077002;27;45394;-57
2022/09/16 06:30:02;;;;;;;;;13.00;11.00;;;;;15.84;66.71;100762.88;5096090;27;45616;-54
2022/09/16 06:32:30;;;;;;;;;13.33;11.67;;;;;15.97;66.60;100776.22;5096927;27;46316;-61
2022/09/16 06:34:56;;;;;;;;;19.00;13.33;;;;;16.01;66.06;100758.91;5096228;27;45321;-57
2022/09/16 06:37:21;;;;;;;;;15.33;13.33;;;;;16.11;65.72;100773.34;5108278;27;45229;-57
2022/09/16 06:39:46;;;;;;;;;12.67;10.67;;;;;16.12;65.97;100772.38;5100470;27;45525;-58
2022/09/16 06:42:12;;;;;;;;;14.67;12.00;;;;;16.03;65.95;100757.00;5092396;27;46889;-58
2022/09/16 06:44:37;;;;;;;;;18.00;14.67;;;;;15.99;66.28;100772.44;5095911;27;45154;-57
2022/09/16 06:47:03;;;;;;;;;13.67;12.00;;;;;15.87;66.90;100770.69;5097920;27;45183;-59
2022/09/16 06:49:28;;;;;;;;;15.33;15.33;;;;;15.81;66.89;100772.00;5094104;27;45576;-60
2022/09/16 06:51:53;;;;;;;;;17.33;16.33;;;;;15.77;66.93;100778.59;5096798;27;45349;-56
2022/09/16 06:54:19;;;;;;;;;21.33;15.33;;;;;15.85;67.25;100786.91;5095251;27;45434;-60
2022/09/16 06:56:44;;;;;;;;;14.33;14.33;;;;;15.85;66.81;100780.69;5097328;27;45350;-59
2022/09/16 06:59:13;;;;;;;;;18.00;18.00;;;;;15.94;66.59;100771.94;5094590;27;45317;-58
2022/09/16 07:01:38;;;;;;;;;16.33;15.33;;;;;15.95;66.09;100768.28;5090341;27;47006;-58
2022/09/16 07:04:09;;;;;;;;;27.00;21.33;;;;;16.22;66.24;100792.16;5080850;27;45568;-61
2022/09/16 07:06:34;;;;;;;;;22.00;17.67;;;;;16.36;65.71;100796.47;5090905;27;45559;-57
2022/09/16 07:09:00;;;;;;;;;16.67;15.00;;;;;16.43;65.02;100803.94;5090326;27;45337;-57
2022/09/16 07:11:28;;;;;;;;;16.33;14.33;;;;;16.47;64.94;100802.72;5082818;27;46345;-58
2022/09/16 07:13:54;;;;;;;;;14.00;14.00;;;;;16.55;64.58;100809.34;5089723;27;45771;-59
2022/09/16 07:16:22;;;;;;;;;15.67;12.67;;;;;16.59;64.77;100813.50;5083174;27;46893;-57
2022/09/16 07:18:53;;;;;;;;;15.33;12.33;;;;;16.63;64.65;100815.81;5098206;27;45550;-57
2022/09/16 07:21:21;;;;;;;;;16.67;15.00;;;;;16.65;64.90;100813.84;5099914;27;46313;-58
2022/09/16 07:23:47;;;;;;;;;24.33;18.67;;;;;16.63;64.72;100813.13;5116227;27;45701;-58
2022/09/16 07:26:19;;;;;;;;;22.00;20.00;;;;;16.55;65.30;100806.66;5093054;27;45683;-62
2022/09/16 07:28:46;;;;;;;;;27.00;27.00;;;;;16.71;64.62;100826.00;5099284;27;45656;-59
2022/09/16 07:31:15;;;;;;;;;21.67;17.67;;;;;16.69;64.64;100814.53;5085779;27;45738;-58
2022/09/16 07:33:43;;;;;;;;;27.00;21.00;;;;;16.89;63.99;100813.81;5092469;27;45593;-59
2022/09/16 07:36:11;;;;;;;;;18.33;16.67;;;;;17.03;63.30;100808.19;5094580;27;45345;-59
2022/09/16 07:38:36;;;;;;;;;21.67;15.67;;;;;16.96;62.89;100817.72;5080940;27;45542;-60
2022/09/16 07:41:14;;;;;;;;;19.00;17.33;;;;;17.01;63.32;100820.03;5087404;27;45834;-58
2022/09/16 07:43:40;;;;;;;;;14.00;13.00;;;;;17.12;62.98;100811.13;5082778;27;45665;-59
2022/09/16 07:46:09;;;;;;;;;17.00;15.00;;;;;17.36;62.72;100809.16;5087497;27;47213;-57
2022/09/16 07:48:35;;;;;;;;;24.00;20.33;;;;;17.53;61.78;100815.84;5091553;27;45696;-58
2022/09/16 07:51:05;;;;;;;;;18.67;14.00;;;;;17.61;61.29;100816.94;5088733;27;45387;-58
2022/09/16 07:53:31;;;;;;;;;17.00;13.67;;;;;17.52;61.03;100792.63;5087272;27;45520;-65
2022/09/16 07:56:01;;;;;;;;;19.33;17.67;;;;;17.73;62.01;100830.41;5073428;27;45591;-49
2022/09/16 07:58:27;;;;;;;;;11.00;11.00;;;;;17.81;60.12;100833.31;5088721;27;45648;-47
2022/09/16 08:00:52;;;;;;;;;18.00;13.67;;;;;17.81;59.59;100830.59;5088302;27;45436;-46
2022/09/16 08:03:17;;;;;;;;;16.00;14.33;;;;;17.72;59.46;100842.16;5092427;27;45496;-47
2022/09/16 08:05:43;;;;;;;;;19.00;16.00;;;;;17.59;60.32;100835.03;5102070;27;45432;-54
2022/09/16 08:08:08;;;;;;;;;16.00;12.67;;;;;17.55;60.00;100830.88;5088798;27;45659;-58
2022/09/16 08:10:35;;;;;;;;;11.67;10.00;;;;;17.53;59.86;100832.00;5086914;27;45286;-55
2022/09/16 08:13:05;;;;;;;;;14.67;9.33;;;;;17.47;59.97;100838.72;5093597;27;45499;-53
2022/09/16 08:15:31;;;;;;;;;12.67;10.00;;;;;17.42;59.66;100851.69;5091901;27;45398;-50
2022/09/16 08:17:56;;;;;;;;;6.00;5.00;;;;;17.42;59.96;100840.91;5096045;27;45912;-55
2022/09/16 08:20:23;;;;;;;;;13.33;10.33;;;;;17.47;60.29;100849.50;5078480;27;46148;-57
2022/09/16 08:22:48;;;;;;;;;8.67;8.00;;;;;17.56;59.72;100840.66;5091710;27;45474;-54
2022/09/16 08:25:14;;;;;;;;;7.00;7.00;;;;;17.55;59.72;100851.53;5098183;27;45428;-51
2022/09/16 08:27:42;;;;;;;;;9.67;9.67;;;;;17.59;59.40;100853.03;5088310;27;45587;-51
2022/09/16 08:30:09;;;;;;;;;8.00;8.00;;;;;17.66;59.50;100854.22;5088598;27;45619;-53
2022/09/16 08:32:34;;;;;;;;;7.00;7.00;;;;;17.67;58.99;100856.78;5095247;27;45508;-54
2022/09/16 08:35:00;;;;;;;;;10.67;6.67;;;;;17.64;58.84;100857.03;5090263;27;45374;-58
2022/09/16 08:37:26;;;;;;;;;10.67;8.33;;;;;17.67;58.89;100866.69;5098400;27;45181;-51
2022/09/16 08:39:51;;;;;;;;;9.33;6.00;;;;;17.62;58.82;100863.53;5097026;27;45390;-53
2022/09/16 08:42:28;;;;;;;;;11.67;10.67;;;;;17.64;58.56;100877.69;5094596;27;45522;-54
2022/09/16 08:45:00;;;;;;;;;8.67;7.00;;;;;17.67;57.85;100861.31;5087089;27;45440;-51
2022/09/16 08:47:37;;;;;;;;;6.33;6.33;;;;;17.80;57.88;100866.56;5094322;27;45426;-54
2022/09/16 08:50:09;;;;;;;;;10.67;8.00;;;;;17.93;57.52;100873.50;5097421;27;45336;-54
2022/09/16 08:52:37;;;;;;;;;6.00;6.00;;;;;18.03;58.00;100879.00;5089586;27;45265;-52
2022/09/16 08:55:30;;;;;;;;;7.33;7.33;;;;;18.13;57.45;100879.94;5077023;28;45402;-58
2022/09/16 08:58:16;;;;;;;;;6.67;6.33;;;;;18.22;56.55;100867.53;5090496;27;45308;-57
2022/09/16 09:00:45;;;;;;;;;8.67;7.00;;;;;18.22;56.22;100879.16;5078151;27;45415;-51
2022/09/16 09:03:19;;;;;;;;;7.00;5.00;;;;;18.25;54.34;100873.53;5082430;27;45392;-52
2022/09/16 09:05:56;;;;;;;;;5.50;5.50;;;;;18.31;55.39;100874.00;5090252;27;45502;-55
2022/09/16 09:08:36;;;;;;;;;5.33;5.00;;;;;18.40;53.71;100873.22;5088577;27;45548;-59
2022/09/16 09:11:12;;;;;;;;;6.67;5.33;;;;;18.41;53.60;100883.00;5094966;27;46839;-60
2022/09/16 09:13:37;;;;;;;;;6.33;5.67;;;;;18.37;54.13;100882.44;5096173;27;45591;-60
2022/09/16 09:16:18;;;;;;;;;4.33;4.33;;;;;18.34;52.78;100868.34;5089286;27;45416;-60
2022/09/16 09:18:58;;;;;;;;;5.00;5.00;;;;;18.46;51.85;100886.16;5088423;27;45413;-59
2022/09/16 09:21:45;;;;;;;;;5.00;5.00;;;;;18.40;51.31;100881.31;5089629;27;45775;-59
2022/09/16 09:24:29;;;;;;;;;6.67;6.67;;;;;18.62;52.51;100891.09;5093115;27;45433;-59
2022/09/16 09:27:07;;;;;;;;;4.00;4.00;;;;;18.78;52.05;100878.94;5096228;27;45606;-61
2022/09/16 09:29:41;;;;;;;;;4.67;4.00;;;;;19.01;49.83;100893.13;5098880;27;45442;-58
2022/09/16 09:32:28;;;;;;;;;4.67;4.67;;;;;19.13;47.68;100899.28;5094003;27;45359;-59
2022/09/16 09:35:15;;;;;;;;;3.33;3.33;;;;;19.20;47.24;100899.59;5084718;27;45380;-61
2022/09/16 09:38:00;;;;;;;;;6.00;5.00;;;;;19.35;48.27;100900.97;5077700;27;45256;-60
2022/09/16 09:40:53;;;;;;;;;3.00;3.00;;;;;19.51;46.38;100900.44;5077625;27;45196;-61
2022/09/16 09:43:18;;;;;;;;;4.00;3.00;;;;;19.61;45.48;100895.97;5092782;27;45449;-60
2022/09/16 09:46:02;;;;;;;;;2.00;2.00;;;;;19.78;44.17;100889.06;5097406;27;45355;-60
2022/09/16 09:48:53;;;;;;;;;3.00;2.00;;;;;20.03;45.06;100893.97;5098203;27;45590;-61
2022/09/16 09:51:28;;;;;;;;;1.33;1.33;;;;;20.06;41.88;100890.16;5097060;27;45430;-59
2022/09/16 09:54:00;;;;;;;;;1.00;1.00;;;;;20.02;41.77;100897.66;5089942;27;46287;-62
2022/09/16 09:56:38;;;;;;;;;2.00;2.00;;;;;19.99;43.96;100896.09;5098344;27;45340;-62
2022/09/16 09:59:31;;;;;;;;;2.00;2.00;;;;;20.04;43.70;100901.06;5098486;27;45278;-60
2022/09/16 10:01:59;;;;;;;;;3.00;2.00;;;;;20.26;44.04;100897.25;5089522;27;45323;-59
2022/09/16 10:04:25;;;;;;;;;2.33;1.33;;;;;20.30;42.25;100898.69;5093472;27;45372;-59
2022/09/16 10:06:53;;;;;;;;;2.00;2.00;;;;;20.22;42.83;100902.09;5097728;27;45377;-59
2022/09/16 10:09:19;;;;;;;;;4.33;3.33;;;;;20.28;40.27;100903.38;5098032;27;45451;-60
2022/09/16 10:11:48;;;;;;;;;3.67;3.67;;;;;20.26;40.28;100900.81;5097544;27;45460;-60
2022/09/16 10:14:26;;;;;;;;;4.00;4.00;;;;;20.30;41.23;100904.94;5095797;27;46596;-60
2022/09/16 10:16:52;;;;;;;;;1.33;1.33;;;;;20.36;41.34;100892.72;5097554;27;45376;-62
2022/09/16 10:19:25;;;;;;;;;4.00;2.00;;;;;20.35;40.56;100904.53;5096516;27;45358;-60
2022/09/16 10:21:52;;;;;;;;;2.00;2.00;;;;;20.42;40.22;100905.69;5102985;27;45361;-61
2022/09/16 10:24:39;;;;;;;;;2.25;2.00;;;;;20.47;39.40;100899.88;5097557;27;45428;-61
2022/09/16 10:27:20;;;;;;;;;2.33;2.00;;;;;20.48;38.71;100897.03;5097511;27;45310;-61
2022/09/16 10:29:46;;;;;;;;;2.00;2.00;;;;;20.48;37.72;100888.06;5097269;27;45450;-60
2022/09/16 10:32:18;;;;;;;;;2.00;2.00;;;;;20.48;36.83;100890.78;5097601;27;45483;-60
2022/09/16 10:34:45;;;;;;;;;2.00;1.33;;;;;20.45;37.33;100896.47;5097191;27;46143;-65
2022/09/16 10:37:13;;;;;;;;;2.00;1.50;;;;;20.47;38.54;100884.50;5091990;27;45676;-61
2022/09/16 10:39:48;;;;;;;;;1.00;1.00;;;;;20.57;37.58;100879.09;5085587;27;45854;-61
2022/09/16 10:42:21;;;;;;;;;1.33;1.33;;;;;20.80;36.45;100893.16;5095445;27;45570;-61
2022/09/16 10:44:50;;;;;;;;;1.00;1.00;;;;;20.93;38.05;100893.69;5094038;27;45436;-60
2022/09/16 10:47:25;;;;;;;;;2.00;2.00;;;;;20.91;39.40;100880.31;5085905;27;45423;-55
2022/09/16 10:49:57;;;;;;;;;2.00;2.00;;;;;20.99;41.73;100887.72;5076942;27;45262;-57
2022/09/16 10:52:28;;;;;;;;;5.00;4.00;;;;;20.97;38.39;100886.16;5076158;28;45450;-54
2022/09/16 10:54:55;;;;;;;;;3.00;3.00;;;;;21.00;37.65;100888.56;5076666;27;46241;-53
2022/09/16 10:57:24;;;;;;;;;2.00;2.00;;;;;20.96;36.96;100900.66;5075448;28;45384;-55
2022/09/16 11:00:18;;;;;;;;;2.50;2.00;;;;;20.98;39.35;100899.53;5077027;27;45351;-54
2022/09/16 11:03:02;;;;;;;;;10.75;5.00;;;;;21.01;39.40;100904.66;5079443;27;45594;-58
2022/09/16 11:05:37;;;;;;;;;2.00;2.00;;;;;21.01;39.25;100888.41;5097184;27;45437;-55
2022/09/16 11:08:24;;;;;;;;;2.00;2.00;;;;;20.92;38.45;100905.50;5096627;27;45259;-55
2022/09/16 11:10:49;;;;;;;;;1.75;1.75;;;;;21.05;38.73;100894.38;5096614;27;45291;-54
2022/09/16 11:13:26;;;;;;;;;1.33;1.33;;;;;20.93;38.88;100899.09;5096871;27;45404;-55
2022/09/16 11:16:11;;;;;;;;;1.33;1.33;;;;;20.75;37.85;100903.56;5096332;27;45472;-53
2022/09/16 11:18:56;;;;;;;;;3.00;3.00;;;;;20.69;39.51;100899.56;5096414;27;45393;-55
2022/09/16 11:21:57;;;;;;;;;2.00;2.00;;;;;20.65;38.32;100908.09;5098269;27;45288;-54
2022/09/16 11:24:42;;;;;;;;;2.00;2.00;;;;;20.52;38.06;100906.53;5096795;27;45622;-54
2022/09/16 11:27:36;;;;;;;;;2.00;2.00;;;;;20.59;38.57;100910.41;5094628;27;47920;-54
2022/09/16 11:30:18;;;;;;;;;7.00;4.00;;;;;20.71;39.53;100903.00;5063748;27;45472;-54
2022/09/16 11:33:26;;;;;;;;;3.75;3.75;;;;;20.79;39.78;100911.22;5096858;27;45360;-56
2022/09/16 11:36:27;;;;;;;;;2.67;1.00;;;;;20.80;37.23;100912.91;5068546;27;45536;-55
2022/09/16 11:39:04;;;;;;;;;2.00;2.00;;;;;21.03;39.50;100908.06;5076554;27;45400;-54